DBOSS LESU-EDDH
Flight info
| Callsign | DBOSS |
|---|---|
| Flight time | N/A |
| Altitude | 38000 |
| Route | GIROM DCT GONUP DCT MANAK DCT LESDO/N0507F390 DCT NOLGO NOLGO3S |
| Aircraft | C750/M-SBDE3FGHRWXY/S |
Departure
| Time | 2026-04-25 17:40 |
|---|---|
| Airport | Pirineus - la Seu d'Urgel Airport (LESU) |
Arrival
| Time | N/A |
|---|---|
| Airport | Hamburg Helmut Schmidt Airport (EDDH) |
| Time | Latitude | Longitude | Altitude | Speed | Heading |
|---|---|---|---|---|---|
| 2026-04-25 17:27 | 42.33745 | 1.40347 | 2637 ft | 0 kts | 212° |
| 2026-04-25 17:36 | 42.33735 | 1.40341 | 2637 ft | 3 kts | 194° |
| 2026-04-25 17:36 | 42.33712 | 1.40371 | 2637 ft | 7 kts | 119° |
| 2026-04-25 17:36 | 42.33681 | 1.40446 | 2637 ft | 11 kts | 119° |
| 2026-04-25 17:37 | 42.33702 | 1.40529 | 2637 ft | 10 kts | 39° |
| 2026-04-25 17:37 | 42.33727 | 1.40599 | 2637 ft | 9 kts | 117° |
| 2026-04-25 17:37 | 42.33748 | 1.40673 | 2637 ft | 11 kts | 55° |
| 2026-04-25 17:37 | 42.33800 | 1.40773 | 2637 ft | 15 kts | 54° |
| 2026-04-25 17:38 | 42.33867 | 1.40868 | 2637 ft | 13 kts | 37° |
| 2026-04-25 17:38 | 42.33891 | 1.40893 | 2637 ft | 13 kts | 37° |
| 2026-04-25 17:38 | 42.34000 | 1.40992 | 2637 ft | 10 kts | 30° |
| 2026-04-25 17:38 | 42.34095 | 1.41069 | 2637 ft | 21 kts | 31° |
| 2026-04-25 17:39 | 42.34188 | 1.41144 | 2637 ft | 26 kts | 31° |
| 2026-04-25 17:39 | 42.34362 | 1.41288 | 2637 ft | 30 kts | 30° |
| 2026-04-25 17:39 | 42.34536 | 1.41515 | 2637 ft | 21 kts | 50° |
| 2026-04-25 17:39 | 42.34585 | 1.41456 | 2637 ft | 12 kts | 232° |
| 2026-04-25 17:40 | 42.34514 | 1.41396 | 2637 ft | 40 kts | 212° |
| 2026-04-25 17:40 | 42.33961 | 1.40948 | 2637 ft | 137 kts | 211° |
| 2026-04-25 17:40 | 42.33107 | 1.40132 | 2994 ft | 155 kts | 223° |
| 2026-04-25 17:40 | 42.32138 | 1.39208 | 3291 ft | 185 kts | 218° |
| 2026-04-25 17:41 | 42.31059 | 1.38011 | 3688 ft | 216 kts | 223° |
| 2026-04-25 17:41 | 42.29877 | 1.36558 | 4174 ft | 243 kts | 221° |
| 2026-04-25 17:41 | 42.28245 | 1.35640 | 4621 ft | 270 kts | 192° |
| 2026-04-25 17:41 | 42.26394 | 1.35334 | 5761 ft | 264 kts | 186° |
| 2026-04-25 17:42 | 42.24561 | 1.35065 | 6727 ft | 268 kts | 188° |
| 2026-04-25 17:42 | 42.22699 | 1.34678 | 7596 ft | 273 kts | 190° |
| 2026-04-25 17:42 | 42.20803 | 1.34266 | 8559 ft | 279 kts | 190° |
| 2026-04-25 17:42 | 42.18861 | 1.33880 | 9516 ft | 284 kts | 189° |
| 2026-04-25 17:43 | 42.16913 | 1.33500 | 10452 ft | 283 kts | 189° |
| 2026-04-25 17:43 | 42.14940 | 1.33107 | 11208 ft | 289 kts | 189° |
| 2026-04-25 17:43 | 42.12933 | 1.32700 | 11989 ft | 292 kts | 189° |
| 2026-04-25 17:43 | 42.10894 | 1.32285 | 12731 ft | 298 kts | 190° |
| 2026-04-25 17:44 | 42.08925 | 1.31487 | 13444 ft | 301 kts | 201° |
| 2026-04-25 17:44 | 42.06969 | 1.30437 | 14204 ft | 305 kts | 202° |
| 2026-04-25 17:44 | 42.04981 | 1.29394 | 14932 ft | 307 kts | 201° |
| 2026-04-25 17:44 | 42.02976 | 1.28374 | 15658 ft | 309 kts | 200° |
| 2026-04-25 17:45 | 42.00956 | 1.27340 | 16412 ft | 312 kts | 200° |
| 2026-04-25 17:45 | 41.99604 | 1.26640 | 16921 ft | 314 kts | 200° |
| 2026-04-25 17:45 | 41.96858 | 1.25221 | 17920 ft | 319 kts | 200° |
| 2026-04-25 17:45 | 41.94768 | 1.24147 | 18644 ft | 323 kts | 200° |
| 2026-04-25 17:46 | 41.92713 | 1.23005 | 19281 ft | 328 kts | 208° |
| 2026-04-25 17:46 | 41.91059 | 1.20890 | 19896 ft | 334 kts | 236° |
| 2026-04-25 17:46 | 41.90158 | 1.18019 | 20679 ft | 336 kts | 258° |
| 2026-04-25 17:46 | 41.90154 | 1.14880 | 21421 ft | 339 kts | 281° |
| 2026-04-25 17:47 | 41.91071 | 1.11977 | 22230 ft | 340 kts | 304° |
| 2026-04-25 17:47 | 41.92770 | 1.09779 | 22920 ft | 344 kts | 327° |
| 2026-04-25 17:47 | 41.95017 | 1.08664 | 23630 ft | 348 kts | 350° |
| 2026-04-25 17:47 | 41.97405 | 1.08338 | 24258 ft | 350 kts | 355° |
| 2026-04-25 17:48 | 42.02320 | 1.07903 | 25448 ft | 356 kts | 354° |
| 2026-04-25 17:48 | 42.04803 | 1.07617 | 26049 ft | 359 kts | 353° |
| 2026-04-25 17:48 | 42.07310 | 1.07329 | 26646 ft | 363 kts | 354° |
| 2026-04-25 17:49 | 42.09841 | 1.07065 | 27242 ft | 366 kts | 354° |
| 2026-04-25 17:49 | 42.12390 | 1.06802 | 27848 ft | 369 kts | 354° |
| 2026-04-25 17:49 | 42.14964 | 1.06523 | 28465 ft | 373 kts | 354° |
| 2026-04-25 17:49 | 42.17559 | 1.06237 | 29095 ft | 376 kts | 354° |
| 2026-04-25 17:50 | 42.20183 | 1.05955 | 29780 ft | 380 kts | 354° |
| 2026-04-25 17:50 | 42.22829 | 1.05673 | 30348 ft | 384 kts | 354° |
| 2026-04-25 17:50 | 42.25468 | 1.05388 | 30887 ft | 387 kts | 354° |
| 2026-04-25 17:50 | 42.28160 | 1.05096 | 31457 ft | 389 kts | 354° |
| 2026-04-25 17:51 | 42.30879 | 1.04802 | 31994 ft | 392 kts | 354° |
| 2026-04-25 17:51 | 42.33610 | 1.04506 | 32507 ft | 395 kts | 354° |
| 2026-04-25 17:51 | 42.36359 | 1.04209 | 33031 ft | 398 kts | 354° |
| 2026-04-25 17:51 | 42.39132 | 1.03909 | 33528 ft | 401 kts | 354° |
| 2026-04-25 17:52 | 42.41930 | 1.03605 | 33998 ft | 405 kts | 354° |
| 2026-04-25 17:52 | 42.43795 | 1.03402 | 34270 ft | 408 kts | 354° |
| 2026-04-25 17:52 | 42.47596 | 1.02989 | 34833 ft | 412 kts | 354° |
| 2026-04-25 17:52 | 42.50467 | 1.02677 | 35227 ft | 415 kts | 354° |
| 2026-04-25 17:53 | 42.53324 | 1.02366 | 35618 ft | 419 kts | 354° |
| 2026-04-25 17:53 | 42.56244 | 1.02048 | 35992 ft | 422 kts | 354° |
| 2026-04-25 17:53 | 42.59183 | 1.01727 | 36350 ft | 425 kts | 354° |
| 2026-04-25 17:53 | 42.62145 | 1.01404 | 36712 ft | 429 kts | 354° |
| 2026-04-25 17:54 | 42.65125 | 1.01077 | 37074 ft | 432 kts | 354° |
| 2026-04-25 17:54 | 42.68131 | 1.00749 | 37445 ft | 434 kts | 354° |
| 2026-04-25 17:54 | 42.71158 | 1.00417 | 37794 ft | 437 kts | 354° |
| 2026-04-25 17:54 | 42.74196 | 1.00085 | 38152 ft | 440 kts | 354° |
| 2026-04-25 17:55 | 42.77284 | 0.99703 | 38142 ft | 450 kts | 351° |
| 2026-04-25 17:55 | 42.83491 | 0.97699 | 38157 ft | 466 kts | 342° |
| 2026-04-25 17:56 | 42.89892 | 0.95441 | 38154 ft | 484 kts | 345° |
| 2026-04-25 17:56 | 42.96504 | 0.93214 | 38147 ft | 499 kts | 343° |
| 2026-04-25 17:57 | 43.03350 | 0.90800 | 38144 ft | 514 kts | 344° |
| 2026-04-25 17:57 | 43.10337 | 0.88410 | 38141 ft | 526 kts | 343° |
| 2026-04-25 17:58 | 43.17500 | 0.85889 | 38123 ft | 532 kts | 343° |
| 2026-04-25 17:58 | 43.24660 | 0.83403 | 38126 ft | 527 kts | 343° |
| 2026-04-25 17:59 | 43.31669 | 0.80939 | 38115 ft | 518 kts | 343° |
| 2026-04-25 17:59 | 43.38612 | 0.78513 | 38115 ft | 511 kts | 343° |
| 2026-04-25 18:00 | 43.45453 | 0.76078 | 38114 ft | 503 kts | 341° |
| 2026-04-25 18:00 | 43.51888 | 0.72496 | 38119 ft | 494 kts | 333° |
| 2026-04-25 18:01 | 43.58141 | 0.68774 | 38118 ft | 491 kts | 334° |
| 2026-04-25 18:01 | 43.64410 | 0.65120 | 38119 ft | 486 kts | 333° |
| 2026-04-25 18:02 | 43.70616 | 0.61416 | 38117 ft | 483 kts | 334° |
| 2026-04-25 18:02 | 43.76746 | 0.57811 | 38113 ft | 480 kts | 333° |
| 2026-04-25 18:03 | 43.82868 | 0.54157 | 38115 ft | 477 kts | 333° |
| 2026-04-25 18:03 | 43.88966 | 0.50540 | 38119 ft | 475 kts | 333° |
| 2026-04-25 18:04 | 43.94999 | 0.46934 | 38117 ft | 473 kts | 333° |
| 2026-04-25 18:04 | 44.00790 | 0.42750 | 38113 ft | 464 kts | 320° |
| 2026-04-25 18:05 | 44.05247 | 0.36460 | 38117 ft | 454 kts | 302° |
| 2026-04-25 18:05 | 44.07891 | 0.28609 | 38119 ft | 446 kts | 283° |
| 2026-04-25 18:06 | 44.08462 | 0.20157 | 38117 ft | 441 kts | 264° |
| 2026-04-25 18:06 | 44.06933 | 0.11958 | 38121 ft | 439 kts | 245° |
| 2026-04-25 18:07 | 44.03569 | 0.04883 | 38134 ft | 439 kts | 230° |
| 2026-04-25 18:07 | 43.99043 | -0.00792 | 38133 ft | 440 kts | 216° |
| 2026-04-25 18:08 | 43.93534 | -0.04539 | 38065 ft | 443 kts | 200° |
| 2026-04-25 18:08 | 43.90565 | -0.05531 | 37378 ft | 436 kts | 192° |
| 2026-04-25 18:08 | 43.87581 | -0.05962 | 36695 ft | 427 kts | 186° |
| 2026-04-25 18:08 | 43.84660 | -0.05807 | 35988 ft | 424 kts | 176° |
| 2026-04-25 18:09 | 43.81780 | -0.04957 | 35183 ft | 423 kts | 167° |
| 2026-04-25 18:09 | 43.79047 | -0.03466 | 34438 ft | 422 kts | 157° |
| 2026-04-25 18:09 | 43.76548 | -0.01386 | 34016 ft | 418 kts | 148° |
| 2026-04-25 18:09 | 43.75767 | -0.00568 | 33860 ft | 419 kts | 145° |
| 2026-04-25 18:10 | 43.72037 | 0.03667 | 33172 ft | 415 kts | 144° |
| 2026-04-25 18:10 | 43.69802 | 0.06178 | 32761 ft | 414 kts | 144° |
| 2026-04-25 18:10 | 43.67577 | 0.08694 | 32349 ft | 412 kts | 144° |
| 2026-04-25 18:10 | 43.65360 | 0.11212 | 31942 ft | 411 kts | 144° |
| 2026-04-25 18:11 | 43.63148 | 0.13713 | 31537 ft | 411 kts | 144° |
| 2026-04-25 18:11 | 43.60868 | 0.16270 | 31146 ft | 435 kts | 144° |
| 2026-04-25 18:11 | 43.58469 | 0.18936 | 30787 ft | 460 kts | 144° |
| 2026-04-25 18:11 | 43.55913 | 0.21790 | 30433 ft | 484 kts | 143° |
| 2026-04-25 18:12 | 43.53248 | 0.24806 | 30054 ft | 506 kts | 143° |
| 2026-04-25 18:12 | 43.50474 | 0.27945 | 29641 ft | 525 kts | 143° |
| 2026-04-25 18:12 | 43.47588 | 0.31172 | 29227 ft | 537 kts | 143° |
| 2026-04-25 18:12 | 43.44735 | 0.34372 | 28800 ft | 518 kts | 142° |
| 2026-04-25 18:13 | 43.42040 | 0.37446 | 28365 ft | 501 kts | 142° |
| 2026-04-25 18:13 | 43.39383 | 0.40456 | 27940 ft | 486 kts | 142° |
| 2026-04-25 18:13 | 43.36798 | 0.43329 | 27470 ft | 473 kts | 142° |
| 2026-04-25 18:14 | 43.31759 | 0.48914 | 26254 ft | 457 kts | 142° |
| 2026-04-25 18:14 | 43.29311 | 0.51652 | 25663 ft | 450 kts | 142° |
| 2026-04-25 18:14 | 43.26896 | 0.54342 | 25080 ft | 444 kts | 142° |
| 2026-04-25 18:14 | 43.24514 | 0.56978 | 24509 ft | 438 kts | 142° |
| 2026-04-25 18:15 | 43.22176 | 0.59566 | 23939 ft | 432 kts | 142° |
| 2026-04-25 18:15 | 43.19854 | 0.62143 | 23337 ft | 427 kts | 142° |
| 2026-04-25 18:15 | 43.17561 | 0.64686 | 22783 ft | 419 kts | 142° |
| 2026-04-25 18:15 | 43.15310 | 0.67174 | 22241 ft | 414 kts | 142° |
| 2026-04-25 18:16 | 43.13041 | 0.69674 | 21689 ft | 426 kts | 142° |
| 2026-04-25 18:16 | 43.10667 | 0.72277 | 21101 ft | 445 kts | 142° |
| 2026-04-25 18:16 | 43.05715 | 0.77672 | 19884 ft | 451 kts | 143° |
| 2026-04-25 18:17 | 43.03064 | 0.79707 | 19205 ft | 434 kts | 165° |
| 2026-04-25 18:17 | 43.00362 | 0.78772 | 18012 ft | 415 kts | 229° |
| 2026-04-25 18:17 | 43.00319 | 0.75269 | 15354 ft | 421 kts | 328° |
| 2026-04-25 18:17 | 43.02940 | 0.74937 | 9103 ft | 334 kts | 358° |
| 2026-04-25 18:18 | 43.05471 | 0.73322 | 3854 ft | 348 kts | 357° |